Time;durP1;ratioP1;P1;durP2;ratioP2;P2;SDS_P1;SDS_P2;PMS_P1;PMS_P2;Temp;Humidity;BMP_temperature;BMP_pressure;BME280_temperature;BME280_humidity;BME280_pressure;Samples;Min_cycle;Max_cycle;Signal;HPM_P1;HPM_P2
2022/09/16 00:01:16;;;;;;;;;;;;;;;24.58;51.98;98254.97;4468669;32;33955;-83
2022/09/16 00:03:44;;;;;;;;;;;;;;;24.68;51.68;98249.03;4468691;32;33497;-84
2022/09/16 00:06:24;;;;;;;;;;;;;;;23.85;54.05;98270.59;4468822;32;34117;-83
2022/09/16 00:08:53;;;;;;;;;;;;;;;24.33;52.33;98260.84;4454361;32;33609;-85
2022/09/16 00:11:20;;;;;;;;;;;;;;;23.88;53.59;98263.34;4468053;32;35195;-89
2022/09/16 00:13:47;;;;;;;;;;;;;;;24.66;51.28;98269.50;4468402;32;33527;-87
2022/09/16 00:16:17;;;;;;;;;;;;;;;24.44;51.90;98266.41;4468426;32;33865;-86
2022/09/16 00:18:46;;;;;;;;;;;;;;;24.87;50.12;98277.13;4454745;32;34973;-83
2022/09/16 00:21:14;;;;;;;;;;;;;;;24.36;51.07;98288.00;4457424;32;34324;-89
2022/09/16 00:23:41;;;;;;;;;;;;;;;24.69;50.04;98261.34;4454559;32;34240;-84
2022/09/16 00:26:09;;;;;;;;;;;;;;;24.69;49.79;98252.53;4468576;32;34386;-85
2022/09/16 00:28:36;;;;;;;;;;;;;;;24.36;50.72;98261.50;4468558;32;34438;-86
2022/09/16 00:31:03;;;;;;;;;;;;;;;23.99;51.82;98273.34;4472175;32;34433;-90
2022/09/16 00:33:30;;;;;;;;;;;;;;;23.96;51.79;98274.34;4483982;32;33872;-90
2022/09/16 00:36:08;;;;;;;;;;;;;;;24.10;51.39;98273.59;4483949;32;34159;-85
2022/09/16 00:38:36;;;;;;;;;;;;;;;23.32;53.09;98277.84;4468571;32;34322;-84
2022/09/16 00:41:03;;;;;;;;;;;;;;;23.30;53.33;98285.03;4457766;32;34882;-85
2022/09/16 00:43:50;;;;;;;;;;;;;;;24.01;51.29;98284.69;4480875;32;33498;-91
2022/09/16 00:46:44;;;;;;;;;;;;;;;24.05;51.30;98299.47;4469912;32;33437;-85
2022/09/16 00:49:18;;;;;;;;;;;;;;;23.63;52.15;98295.56;4480668;32;34287;-87
2022/09/16 00:51:46;;;;;;;;;;;;;;;23.13;53.50;98314.13;4460103;32;33774;-88
2022/09/16 00:54:13;;;;;;;;;;;;;;;23.18;53.32;98305.00;4454388;32;33479;-85
2022/09/16 00:56:41;;;;;;;;;;;;;;;22.86;53.87;98311.94;4454214;32;34367;-85
2022/09/16 00:59:27;;;;;;;;;;;;;;;22.20;56.05;98309.91;4455847;32;35165;-85
2022/09/16 01:01:56;;;;;;;;;;;;;;;22.79;54.12;98298.16;4477949;32;34510;-86
2022/09/16 01:04:28;;;;;;;;;;;;;;;22.82;53.89;98282.16;4474149;32;33596;-83
2022/09/16 01:06:55;;;;;;;;;;;;;;;22.49;55.02;98273.28;4468187;32;34142;-87
2022/09/16 01:09:22;;;;;;;;;;;;;;;23.01;53.24;98283.88;4465243;32;34109;-84
2022/09/16 01:11:50;;;;;;;;;;;;;;;22.06;55.86;98286.78;4464736;32;34717;-85
2022/09/16 01:17:33;;;;;;;;;;;;;;;22.31;55.39;98312.88;4456303;32;34314;-84
2022/09/16 01:20:06;;;;;;;;;;;;;;;22.44;54.80;98307.84;4458023;32;34002;-83
2022/09/16 01:22:45;;;;;;;;;;;;;;;22.58;53.85;98301.91;4478448;32;33576;-84
2022/09/16 01:25:31;;;;;;;;;;;;;;;21.82;56.11;98311.66;4475447;31;34232;-89
2022/09/16 01:28:14;;;;;;;;;;;;;;;21.45;57.18;98315.16;4468901;32;34055;-85
2022/09/16 01:30:41;;;;;;;;;;;;;;;21.61;56.99;98310.88;4468025;32;35355;-88
2022/09/16 01:33:44;;;;;;;;;;;;;;;21.91;55.74;98310.41;4481814;32;34030;-87
2022/09/16 01:36:17;;;;;;;;;;;;;;;22.14;55.29;98304.06;4409901;32;32830;-84
2022/09/16 01:39:03;;;;;;;;;;;;;;;22.26;54.51;98316.66;4464754;32;33996;-90
2022/09/16 01:41:33;;;;;;;;;;;;;;;21.19;57.63;98308.37;4469870;32;35514;-83
2022/09/16 01:44:02;;;;;;;;;;;;;;;22.58;54.06;98296.63;4476633;32;33791;-84
2022/09/16 01:46:35;;;;;;;;;;;;;;;22.59;53.77;98298.31;4454134;32;33571;-85
2022/09/16 01:49:23;;;;;;;;;;;;;;;22.53;53.96;98302.09;4454050;32;33968;-84
2022/09/16 01:51:50;;;;;;;;;;;;;;;22.38;54.30;98307.28;4469767;32;34258;-90
2022/09/16 01:54:19;;;;;;;;;;;;;;;22.12;55.16;98306.72;4483363;32;35024;-90
2022/09/16 01:56:53;;;;;;;;;;;;;;;22.29;54.73;98311.25;4469426;32;34988;-89
2022/09/16 01:59:38;;;;;;;;;;;;;;;22.81;53.09;98301.59;4482132;32;34633;-83
2022/09/16 02:02:11;;;;;;;;;;;;;;;23.04;52.10;98302.25;4478456;32;34540;-85
2022/09/16 02:04:41;;;;;;;;;;;;;;;21.91;55.03;98305.12;4467964;32;34064;-87
2022/09/16 02:07:09;;;;;;;;;;;;;;;22.37;54.18;98300.31;4461658;32;33522;-84
2022/09/16 02:09:47;;;;;;;;;;;;;;;22.42;54.08;98299.13;4469235;32;33895;-85
2022/09/16 02:12:16;;;;;;;;;;;;;;;22.74;53.13;98313.41;4479666;32;35212;-86
2022/09/16 02:14:44;;;;;;;;;;;;;;;23.41;51.42;98301.16;4477408;32;34881;-90
2022/09/16 02:17:16;;;;;;;;;;;;;;;23.73;50.40;98304.75;4453728;32;34259;-91
2022/09/16 02:19:45;;;;;;;;;;;;;;;23.35;51.31;98311.22;4453709;32;34349;-90
2022/09/16 02:22:17;;;;;;;;;;;;;;;23.60;50.53;98310.75;4471964;32;34390;-85
2022/09/16 02:24:45;;;;;;;;;;;;;;;23.73;50.14;98317.13;4469114;32;34030;-87
2022/09/16 02:27:14;;;;;;;;;;;;;;;23.88;49.79;98321.59;4468102;32;32928;-87
2022/09/16 02:29:49;;;;;;;;;;;;;;;23.85;49.66;98321.75;4469276;32;34779;-87
2022/09/16 02:32:16;;;;;;;;;;;;;;;24.27;48.59;98323.78;4455355;32;35308;-84
2022/09/16 02:34:53;;;;;;;;;;;;;;;24.00;48.86;98328.00;4467618;32;34878;-88
2022/09/16 02:37:22;;;;;;;;;;;;;;;23.38;50.42;98333.06;4453654;32;32893;-83
2022/09/16 02:39:51;;;;;;;;;;;;;;;23.98;48.83;98333.38;4453565;32;33858;-85
2022/09/16 02:42:19;;;;;;;;;;;;;;;23.97;48.04;98333.44;4454655;32;34594;-83
2022/09/16 02:44:46;;;;;;;;;;;;;;;23.71;48.87;98341.00;4468233;32;35198;-89
2022/09/16 02:47:20;;;;;;;;;;;;;;;23.60;49.56;98335.44;4477763;32;33763;-84
2022/09/16 02:49:53;;;;;;;;;;;;;;;22.64;51.60;98346.50;4468991;32;33797;-85
2022/09/16 02:52:20;;;;;;;;;;;;;;;22.97;50.75;98337.84;4469098;32;34412;-83
2022/09/16 02:54:49;;;;;;;;;;;;;;;23.47;49.45;98332.56;4482987;32;33978;-83
2022/09/16 02:57:17;;;;;;;;;;;;;;;23.42;49.13;98339.06;4468189;32;32978;-82
2022/09/16 02:59:44;;;;;;;;;;;;;;;23.50;49.32;98336.84;4462486;32;34021;-85
2022/09/16 03:02:11;;;;;;;;;;;;;;;23.45;49.52;98339.75;4453226;32;34075;-83
2022/09/16 03:04:39;;;;;;;;;;;;;;;21.97;52.93;98349.69;4459108;32;33716;-90
2022/09/16 03:07:07;;;;;;;;;;;;;;;23.24;49.94;98340.88;4482497;32;32970;-83
2022/09/16 03:09:36;;;;;;;;;;;;;;;23.25;49.88;98340.78;4467675;32;34720;-84
2022/09/16 03:12:15;;;;;;;;;;;;;;;23.33;49.37;98339.53;4453829;32;34038;-87
2022/09/16 03:14:45;;;;;;;;;;;;;;;23.46;48.95;98337.97;4466087;32;34770;-84
2022/09/16 03:17:18;;;;;;;;;;;;;;;23.15;49.96;98336.91;4482138;32;33044;-83
2022/09/16 03:19:54;;;;;;;;;;;;;;;23.64;48.51;98342.28;4483035;32;34032;-82
2022/09/16 03:22:22;;;;;;;;;;;;;;;22.93;50.42;98355.66;4481459;32;34192;-88
2022/09/16 03:24:49;;;;;;;;;;;;;;;23.56;48.32;98357.69;4466887;32;33701;-86
2022/09/16 03:27:22;;;;;;;;;;;;;;;21.95;52.62;98362.09;4466219;32;33587;-83
2022/09/16 03:29:52;;;;;;;;;;;;;;;22.00;52.66;98357.47;4452105;32;34514;-82
2022/09/16 03:32:24;;;;;;;;;;;;;;;22.05;52.38;98352.84;4452588;32;35240;-85
2022/09/16 03:34:52;;;;;;;;;;;;;;;22.96;50.28;98352.88;4452619;32;35071;-83
2022/09/16 03:37:19;;;;;;;;;;;;;;;23.25;49.60;98338.13;4452870;32;33564;-87
2022/09/16 03:39:55;;;;;;;;;;;;;;;23.35;49.46;98354.37;4458602;32;33532;-85
2022/09/16 03:42:23;;;;;;;;;;;;;;;23.33;49.50;98361.53;4460478;32;34518;-85
2022/09/16 03:44:50;;;;;;;;;;;;;;;23.39;49.12;98363.88;4453296;32;33675;-90
2022/09/16 03:47:18;;;;;;;;;;;;;;;23.80;47.61;98355.56;4472926;32;33227;-89
2022/09/16 03:49:46;;;;;;;;;;;;;;;23.67;48.13;98362.44;4482096;32;34064;-84
2022/09/16 03:52:19;;;;;;;;;;;;;;;23.78;47.96;98368.84;4478426;32;34397;-90
2022/09/16 03:54:51;;;;;;;;;;;;;;;23.46;49.00;98353.81;4480404;32;33961;-89
2022/09/16 03:57:18;;;;;;;;;;;;;;;23.36;48.60;98350.78;4475387;32;32954;-85
2022/09/16 03:59:45;;;;;;;;;;;;;;;23.52;48.01;98356.13;4466658;32;34329;-87
2022/09/16 04:02:13;;;;;;;;;;;;;;;23.36;48.58;98360.53;4479545;32;34278;-83
2022/09/16 04:04:40;;;;;;;;;;;;;;;23.37;48.83;98368.38;4468737;32;34729;-87
2022/09/16 04:07:07;;;;;;;;;;;;;;;23.57;48.22;98370.00;4471296;32;33205;-83
2022/09/16 04:09:36;;;;;;;;;;;;;;;23.29;48.72;98366.12;4472815;32;34391;-81
2022/09/16 04:12:06;;;;;;;;;;;;;;;23.41;48.01;98358.47;4477053;32;35138;-89
2022/09/16 04:14:34;;;;;;;;;;;;;;;23.21;47.97;98357.72;4472326;32;33997;-87
2022/09/16 04:17:01;;;;;;;;;;;;;;;23.35;48.11;98353.53;4476768;32;33750;-84
2022/09/16 04:19:28;;;;;;;;;;;;;;;23.57;47.94;98354.13;4465500;32;32915;-85
2022/09/16 04:21:56;;;;;;;;;;;;;;;23.62;47.63;98359.16;4469644;32;34459;-82
2022/09/16 04:24:23;;;;;;;;;;;;;;;23.65;47.84;98367.78;4469409;32;35132;-89
2022/09/16 04:26:50;;;;;;;;;;;;;;;23.24;48.83;98369.94;4478563;32;34514;-88
2022/09/16 04:29:17;;;;;;;;;;;;;;;23.87;47.17;98367.53;4478344;32;34137;-82
2022/09/16 04:31:44;;;;;;;;;;;;;;;24.02;46.90;98371.16;4481254;32;34462;-87
2022/09/16 04:34:12;;;;;;;;;;;;;;;24.30;46.04;98367.81;4479828;32;34307;-82
2022/09/16 04:36:39;;;;;;;;;;;;;;;24.38;46.04;98370.03;4474349;32;33404;-92
2022/09/16 04:39:06;;;;;;;;;;;;;;;24.41;46.02;98367.25;4483895;32;35150;-90
2022/09/16 04:41:34;;;;;;;;;;;;;;;24.58;45.42;98368.94;4482963;32;35321;-81
2022/09/16 04:44:01;;;;;;;;;;;;;;;24.56;45.56;98371.69;4484179;31;34875;-82
2022/09/16 04:46:28;;;;;;;;;;;;;;;24.68;45.53;98381.56;4480542;32;33096;-85
2022/09/16 04:48:56;;;;;;;;;;;;;;;24.69;45.53;98372.66;4473018;32;34184;-85
2022/09/16 04:51:27;;;;;;;;;;;;;;;24.22;46.29;98364.75;4468944;32;35638;-82
2022/09/16 04:53:55;;;;;;;;;;;;;;;24.67;45.51;98369.28;4476718;32;33492;-89
2022/09/16 04:56:23;;;;;;;;;;;;;;;24.21;46.63;98376.28;4465621;32;33536;-87
2022/09/16 04:58:52;;;;;;;;;;;;;;;24.63;45.85;98381.00;4476322;32;34423;-88
2022/09/16 05:01:20;;;;;;;;;;;;;;;24.79;45.54;98374.81;4478065;32;34350;-83
2022/09/16 05:03:48;;;;;;;;;;;;;;;24.87;44.96;98378.72;4475353;32;34193;-89
2022/09/16 05:06:16;;;;;;;;;;;;;;;24.93;45.06;98366.91;4463841;32;34261;-85
2022/09/16 05:08:47;;;;;;;;;;;;;;;24.42;45.80;98367.16;4467139;32;34012;-84
2022/09/16 05:11:21;;;;;;;;;;;;;;;24.14;46.41;98373.12;4478086;32;34202;-83
2022/09/16 05:13:48;;;;;;;;;;;;;;;24.09;46.89;98374.28;4477426;32;34188;-86
2022/09/16 05:16:17;;;;;;;;;;;;;;;23.76;47.15;98378.69;4474179;32;34579;-88
2022/09/16 05:18:45;;;;;;;;;;;;;;;24.36;45.97;98380.72;4477970;32;34572;-86
2022/09/16 05:21:14;;;;;;;;;;;;;;;24.14;46.66;98386.34;4472442;32;34359;-88
2022/09/16 05:23:41;;;;;;;;;;;;;;;24.20;46.45;98386.00;4457008;32;33923;-85
2022/09/16 05:26:17;;;;;;;;;;;;;;;24.54;45.63;98388.59;4467785;32;33230;-86
2022/09/16 05:28:44;;;;;;;;;;;;;;;24.82;44.96;98393.19;4467331;32;34178;-89
2022/09/16 05:31:22;;;;;;;;;;;;;;;24.46;45.89;98394.31;4467454;32;34468;-86
2022/09/16 05:33:53;;;;;;;;;;;;;;;24.66;45.48;98402.03;4467449;32;34285;-86
2022/09/16 05:36:21;;;;;;;;;;;;;;;24.47;45.91;98403.97;4467692;32;33775;-88
2022/09/16 05:38:48;;;;;;;;;;;;;;;24.04;46.98;98408.97;4453045;32;34628;-84
2022/09/16 05:41:36;;;;;;;;;;;;;;;24.60;45.88;98398.88;4475283;32;33880;-86
2022/09/16 05:44:05;;;;;;;;;;;;;;;24.78;45.56;98402.28;4473599;32;34905;-88
2022/09/16 05:46:32;;;;;;;;;;;;;;;25.12;44.67;98411.81;4469639;32;33416;-85
2022/09/16 05:49:00;;;;;;;;;;;;;;;25.20;44.53;98402.44;4483639;32;34094;-85
2022/09/16 05:51:27;;;;;;;;;;;;;;;25.03;44.83;98397.22;4483847;32;33986;-90
2022/09/16 05:53:54;;;;;;;;;;;;;;;24.98;45.16;98388.69;4483571;32;34079;-88
2022/09/16 05:56:24;;;;;;;;;;;;;;;24.80;44.93;98379.16;4483764;31;33298;-89
2022/09/16 05:58:52;;;;;;;;;;;;;;;23.94;46.06;98394.50;4469739;31;35541;-90
2022/09/16 06:01:37;;;;;;;;;;;;;;;24.25;46.00;98391.06;4483816;32;34902;-85
2022/09/16 06:04:05;;;;;;;;;;;;;;;23.85;46.84;98400.31;4483469;31;35250;-90
2022/09/16 06:06:33;;;;;;;;;;;;;;;24.15;46.08;98400.44;4483411;31;34412;-85
2022/09/16 06:09:07;;;;;;;;;;;;;;;23.97;46.10;98404.94;4483353;32;34979;-88
2022/09/16 06:11:36;;;;;;;;;;;;;;;23.87;47.06;98404.59;4483839;32;34235;-89
2022/09/16 06:14:04;;;;;;;;;;;;;;;23.88;46.49;98405.44;4469236;32;34487;-89
2022/09/16 06:16:32;;;;;;;;;;;;;;;24.48;45.13;98405.72;4483576;32;33759;-90
2022/09/16 06:19:00;;;;;;;;;;;;;;;23.98;45.79;98401.34;4483762;32;34240;-89
2022/09/16 06:21:27;;;;;;;;;;;;;;;24.55;44.67;98401.78;4469246;32;34368;-85
2022/09/16 06:23:55;;;;;;;;;;;;;;;24.66;44.66;98402.03;4483468;32;33761;-90
2022/09/16 06:26:23;;;;;;;;;;;;;;;24.22;45.08;98402.66;4483425;32;34226;-90
2022/09/16 06:28:51;;;;;;;;;;;;;;;24.47;44.81;98382.78;4483211;31;33839;-89
2022/09/16 06:31:22;;;;;;;;;;;;;;;24.24;44.85;98397.28;4483380;32;35101;-85
2022/09/16 06:33:49;;;;;;;;;;;;;;;23.85;45.81;98395.00;4483404;31;34705;-85
2022/09/16 06:36:17;;;;;;;;;;;;;;;23.36;46.64;98393.13;4483559;32;33403;-84
2022/09/16 06:38:45;;;;;;;;;;;;;;;23.50;46.40;98389.75;4483534;32;33665;-90
2022/09/16 06:41:13;;;;;;;;;;;;;;;23.23;47.20;98402.63;4483279;32;34009;-90
2022/09/16 06:43:40;;;;;;;;;;;;;;;23.02;48.07;98399.25;4483333;32;35566;-90
2022/09/16 06:46:12;;;;;;;;;;;;;;;22.91;48.05;98398.91;4483408;32;33388;-89
2022/09/16 06:48:40;;;;;;;;;;;;;;;;;;4468101;32;33955;-84
2022/09/16 06:51:09;;;;;;;;;;;;;;;23.70;46.84;98397.53;4483442;32;35726;-90
2022/09/16 06:53:36;;;;;;;;;;;;;;;24.15;45.99;98397.78;4469026;32;34059;-87
2022/09/16 06:56:05;;;;;;;;;;;;;;;23.82;45.56;98398.66;4469097;32;33221;-89
2022/09/16 06:58:33;;;;;;;;;;;;;;;24.00;45.79;98404.78;4469138;32;33701;-90
2022/09/16 07:01:06;;;;;;;;;;;;;;;23.58;46.79;98398.16;4469019;32;35241;-85
2022/09/16 07:03:37;;;;;;;;;;;;;;;23.74;46.99;98401.72;4482699;32;33996;-89
2022/09/16 07:06:04;;;;;;;;;;;;;;;24.32;46.11;98418.03;4469006;32;32834;-85
2022/09/16 07:08:31;;;;;;;;;;;;;;;23.89;47.06;98417.72;4483017;32;33524;-87
2022/09/16 07:11:19;;;;;;;;;;;;;;;24.48;45.18;98411.00;4483013;32;34305;-89
2022/09/16 07:13:47;;;;;;;;;;;;;;;24.54;44.56;98421.25;4482987;32;34791;-86
2022/09/16 07:16:15;;;;;;;;;;;;;;;24.39;45.38;98416.81;4483124;32;33550;-83
2022/09/16 07:18:43;;;;;;;;;;;;;;;23.15;47.72;98421.53;4482735;32;35163;-89
2022/09/16 07:21:11;;;;;;;;;;;;;;;23.09;47.75;98424.47;4482587;31;34084;-86
2022/09/16 07:23:39;;;;;;;;;;;;;;;24.09;45.79;98429.91;4468826;32;34567;-84
2022/09/16 07:26:13;;;;;;;;;;;;;;;24.32;45.86;98433.94;4468718;32;33838;-84
2022/09/16 07:28:41;;;;;;;;;;;;;;;23.94;47.94;98429.81;4482777;32;34384;-88
2022/09/16 07:31:10;;;;;;;;;;;;;;;23.45;47.53;98434.09;4468629;32;33913;-85
2022/09/16 07:33:38;;;;;;;;;;;;;;;23.14;47.83;98430.37;4482624;32;34888;-84
2022/09/16 07:36:07;;;;;;;;;;;;;;;23.66;46.35;98434.78;4468409;32;32754;-84
2022/09/16 07:38:35;;;;;;;;;;;;;;;23.43;46.85;98430.69;4468628;32;34031;-89
2022/09/16 07:41:05;;;;;;;;;;;;;;;23.57;47.86;98441.44;4482724;32;34510;-90
2022/09/16 07:43:33;;;;;;;;;;;;;;;23.50;47.67;98447.97;4468482;32;34486;-83
2022/09/16 07:46:00;;;;;;;;;;;;;;;23.41;47.85;98446.66;4482956;31;33566;-87
2022/09/16 07:48:28;;;;;;;;;;;;;;;23.21;47.05;98445.00;4468518;32;34100;-85
2022/09/16 07:51:02;;;;;;;;;;;;;;;23.08;48.88;98457.12;4482653;32;34142;-85
2022/09/16 07:53:29;;;;;;;;;;;;;;;23.38;47.60;98449.44;4468512;32;34099;-84
2022/09/16 07:56:00;;;;;;;;;;;;;;;23.32;47.41;98452.41;4468275;32;33269;-84
2022/09/16 07:58:27;;;;;;;;;;;;;;;23.66;46.80;98454.19;4468262;32;34313;-90
2022/09/16 08:00:55;;;;;;;;;;;;;;;23.69;47.51;98451.41;4469257;32;34049;-88
2022/09/16 08:03:29;;;;;;;;;;;;;;;23.33;47.36;98462.03;4458824;32;34179;-83
2022/09/16 08:06:00;;;;;;;;;;;;;;;23.15;48.77;98469.13;4470310;31;33225;-83
2022/09/16 08:08:28;;;;;;;;;;;;;;;23.20;48.38;98467.09;4470474;32;33704;-89
2022/09/16 08:10:56;;;;;;;;;;;;;;;23.15;48.70;98479.69;4470547;32;34959;-89
2022/09/16 08:13:23;;;;;;;;;;;;;;;22.93;49.34;98474.59;4470427;32;33495;-88
2022/09/16 08:15:50;;;;;;;;;;;;;;;;;;4484397;32;32939;-86
2022/09/16 08:18:17;;;;;;;;;;;;;;;24.03;45.08;98460.22;4484445;32;33948;-86
2022/09/16 08:20:44;;;;;;;;;;;;;;;23.78;46.46;98452.72;4484506;32;35007;-85
2022/09/16 08:23:13;;;;;;;;;;;;;;;23.82;46.57;98459.56;4484330;32;34667;-89
2022/09/16 08:25:41;;;;;;;;;;;;;;;23.53;47.68;98458.41;4484547;32;33764;-88
2022/09/16 08:28:15;;;;;;;;;;;;;;;23.89;46.73;98450.34;4484337;31;34983;-85
2022/09/16 08:30:42;;;;;;;;;;;;;;;24.02;46.33;98458.53;4484000;31;34964;-83
2022/09/16 08:33:09;;;;;;;;;;;;;;;23.81;46.44;98452.56;4470129;32;35105;-90
2022/09/16 08:35:37;;;;;;;;;;;;;;;22.80;48.91;98463.72;4484385;31;33928;-89
2022/09/16 08:38:06;;;;;;;;;;;;;;;23.11;47.99;98459.63;4484178;32;34867;-88
2022/09/16 08:40:33;;;;;;;;;;;;;;;23.28;47.73;98464.91;4484279;32;35016;-89
2022/09/16 08:43:03;;;;;;;;;;;;;;;23.72;46.39;98467.13;4470372;32;34748;-84
2022/09/16 08:45:38;;;;;;;;;;;;;;;23.52;47.00;98467.25;4469649;32;33830;-84
2022/09/16 08:48:19;;;;;;;;;;;;;;;23.68;46.88;98468.22;4470136;32;34192;-84
2022/09/16 08:50:50;;;;;;;;;;;;;;;24.27;44.38;98450.94;4484054;32;34139;-88
2022/09/16 08:53:26;;;;;;;;;;;;;;;23.88;46.28;98453.09;4484485;32;33756;-84
2022/09/16 08:55:53;;;;;;;;;;;;;;;24.11;44.38;98454.50;4484182;31;33196;-83
2022/09/16 08:58:22;;;;;;;;;;;;;;;22.97;47.34;98470.03;4469811;32;34551;-89
2022/09/16 09:00:53;;;;;;;;;;;;;;;23.08;47.78;98486.22;4469610;32;34412;-86
2022/09/16 09:03:21;;;;;;;;;;;;;;;23.14;46.28;98487.69;4466755;32;34975;-84
2022/09/16 09:05:52;;;;;;;;;;;;;;;23.82;45.38;98474.56;4468424;32;33259;-84
2022/09/16 09:08:38;;;;;;;;;;;;;;;24.02;45.46;98477.91;4467109;32;35110;-83
2022/09/16 09:11:24;;;;;;;;;;;;;;;23.56;47.03;98471.44;4468509;32;34093;-83
2022/09/16 09:14:10;;;;;;;;;;;;;;;24.11;45.70;98467.75;4467702;32;34725;-84
2022/09/16 09:16:43;;;;;;;;;;;;;;;23.65;46.26;98457.75;4468295;32;34248;-84
2022/09/16 09:19:16;;;;;;;;;;;;;;;23.69;46.83;98456.69;4467063;32;34199;-83
2022/09/16 09:21:57;;;;;;;;;;;;;;;23.05;46.21;98452.00;4468181;32;35284;-83
2022/09/16 09:25:03;;;;;;;;;;;;;;;22.92;47.14;98454.41;4468194;32;33956;-84
2022/09/16 09:27:35;;;;;;;;;;;;;;;22.86;46.29;98452.00;4403987;32;34230;-90
2022/09/16 09:30:02;;;;;;;;;;;;;;;23.08;46.61;98449.19;4391630;32;35008;-87
2022/09/16 09:32:40;;;;;;;;;;;;;;;22.96;45.53;98450.66;4437120;32;34283;-86
2022/09/16 09:35:25;;;;;;;;;;;;;;;23.16;46.00;98457.59;4467055;32;33864;-83
2022/09/16 09:37:58;;;;;;;;;;;;;;;23.41;45.48;98454.59;4468479;32;33514;-83
2022/09/16 09:40:25;;;;;;;;;;;;;;;23.33;45.75;98455.91;4468138;32;33885;-89
2022/09/16 09:42:57;;;;;;;;;;;;;;;23.63;45.77;98454.31;4467912;32;35042;-84
2022/09/16 09:45:29;;;;;;;;;;;;;;;23.77;45.02;98462.44;4466766;32;34048;-86
2022/09/16 09:47:56;;;;;;;;;;;;;;;23.51;46.17;98460.25;4466902;32;33906;-84
2022/09/16 09:50:24;;;;;;;;;;;;;;;23.95;44.82;98457.97;4466645;32;34125;-90
2022/09/16 09:52:53;;;;;;;;;;;;;;;23.97;45.77;98453.44;4467795;32;34432;-89
2022/09/16 09:55:23;;;;;;;;;;;;;;;23.81;44.56;98446.41;4468025;32;33750;-85
2022/09/16 09:57:54;;;;;;;;;;;;;;;24.08;44.24;98449.38;4466864;32;34182;-84
2022/09/16 10:00:22;;;;;;;;;;;;;;;24.22;43.36;98436.25;4466544;32;34052;-83
2022/09/16 10:02:49;;;;;;;;;;;;;;;24.11;43.02;98431.53;4473577;31;34316;-83
2022/09/16 10:05:21;;;;;;;;;;;;;;;24.25;42.75;98428.16;4483796;32;34115;-90
2022/09/16 10:07:49;;;;;;;;;;;;;;;23.05;45.30;98439.63;4483972;32;33751;-83
2022/09/16 10:10:19;;;;;;;;;;;;;;;23.59;44.11;98436.03;4483939;31;33911;-83
2022/09/16 10:12:46;;;;;;;;;;;;;;;24.11;42.81;98441.28;4469402;32;34118;-84
2022/09/16 10:15:21;;;;;;;;;;;;;;;23.68;43.71;98441.75;4469403;31;35060;-84
2022/09/16 10:17:49;;;;;;;;;;;;;;;23.73;43.87;98447.66;4469598;32;33155;-84
2022/09/16 10:20:22;;;;;;;;;;;;;;;23.70;41.88;98450.47;4469412;32;33629;-84
2022/09/16 10:22:54;;;;;;;;;;;;;;;23.19;42.66;98448.66;4483380;32;34048;-84
2022/09/16 10:25:25;;;;;;;;;;;;;;;23.81;40.08;98438.47;4483383;32;34198;-86
2022/09/16 10:27:53;;;;;;;;;;;;;;;24.69;38.52;98441.59;4483434;31;33495;-89
2022/09/16 10:30:21;;;;;;;;;;;;;;;25.10;38.29;98434.91;4469143;32;35096;-84
2022/09/16 10:32:56;;;;;;;;;;;;;;;25.17;40.20;98431.81;4483304;32;34500;-89
2022/09/16 10:35:25;;;;;;;;;;;;;;;25.29;40.98;98439.97;4483367;32;34813;-83
2022/09/16 10:37:53;;;;;;;;;;;;;;;25.18;41.57;98432.66;4469110;32;33513;-87
2022/09/16 10:40:22;;;;;;;;;;;;;;;25.47;35.56;98430.94;4469181;32;34719;-84
2022/09/16 10:42:51;;;;;;;;;;;;;;;25.30;37.19;98433.72;4483324;32;34479;-85
2022/09/16 10:45:23;;;;;;;;;;;;;;;25.17;40.01;98436.25;4483294;32;34111;-85
2022/09/16 10:47:52;;;;;;;;;;;;;;;25.63;40.82;98437.03;4483328;32;33953;-88
2022/09/16 10:50:19;;;;;;;;;;;;;;;25.47;37.89;98434.44;4469088;32;33915;-85
2022/09/16 10:52:47;;;;;;;;;;;;;;;24.64;38.65;98443.66;4483143;32;34466;-89
2022/09/16 10:55:28;;;;;;;;;;;;;;;25.06;38.49;98447.44;4483242;32;34243;-87
2022/09/16 10:58:05;;;;;;;;;;;;;;;25.18;39.60;98453.87;4469071;32;33134;-89
2022/09/16 11:00:40;;;;;;;;;;;;;;;25.40;38.64;98449.00;4469173;32;34092;-84
2022/09/16 11:03:17;;;;;;;;;;;;;;;25.66;38.63;98444.81;4469294;32;33901;-85
2022/09/16 11:05:53;;;;;;;;;;;;;;;25.14;36.63;98455.00;4469687;32;34313;-84
2022/09/16 11:08:26;;;;;;;;;;;;;;;25.56;37.37;98454.25;4483394;32;33613;-84
2022/09/16 11:10:58;;;;;;;;;;;;;;;25.66;38.30;98459.88;4468602;32;34009;-89
2022/09/16 11:13:44;;;;;;;;;;;;;;;25.37;36.73;98443.88;4468831;32;33765;-84
2022/09/16 11:16:27;;;;;;;;;;;;;;;25.68;35.86;98444.72;4482977;31;34167;-83
2022/09/16 11:19:01;;;;;;;;;;;;;;;25.67;37.21;98443.84;4482939;32;33471;-86
2022/09/16 11:21:55;;;;;;;;;;;;;;;25.70;38.67;98449.00;4468743;32;34815;-89
2022/09/16 11:24:22;;;;;;;;;;;;;;;25.42;38.44;98439.19;4479864;32;34290;-88
2022/09/16 11:26:53;;;;;;;;;;;;;;;25.01;38.99;98430.97;4482879;32;33775;-84
2022/09/16 11:29:23;;;;;;;;;;;;;;;25.12;38.58;98411.81;4482793;32;33116;-85
2022/09/16 11:32:00;;;;;;;;;;;;;;;25.20;38.90;98415.72;4468678;32;35140;-84
2022/09/16 11:34:30;;;;;;;;;;;;;;;25.39;38.13;98420.78;4482715;31;35134;-84
2022/09/16 11:37:03;;;;;;;;;;;;;;;25.19;37.97;98419.31;4484666;32;34311;-87
2022/09/16 11:39:30;;;;;;;;;;;;;;;25.65;36.41;98411.25;4484803;31;34363;-84
2022/09/16 11:42:17;;;;;;;;;;;;;;;26.32;35.87;98410.69;4484850;31;34000;-85
2022/09/16 11:44:45;;;;;;;;;;;;;;;25.62;38.23;98402.63;4484736;32;34807;-84
2022/09/16 11:47:12;;;;;;;;;;;;;;;25.90;38.42;98410.63;4485073;32;33782;-88
2022/09/16 11:49:42;;;;;;;;;;;;;;;25.60;39.53;98405.34;4484504;32;33953;-84
2022/09/16 11:52:15;;;;;;;;;;;;;;;25.77;39.17;98406.16;4484707;31;33873;-84
2022/09/16 11:55:02;;;;;;;;;;;;;;;25.69;38.85;98407.47;4484395;31;35482;-88
2022/09/16 11:57:30;;;;;;;;;;;;;;;25.20;38.30;98402.44;4484831;32;34525;-83
2022/09/16 12:00:04;;;;;;;;;;;;;;;26.04;36.27;98409.78;4470463;32;33833;-84
2022/09/16 12:02:53;;;;;;;;;;;;;;;26.42;35.84;98404.69;4484651;31;34232;-88
2022/09/16 12:05:26;;;;;;;;;;;;;;;26.44;34.97;98405.47;4484430;32;34342;-84
2022/09/16 12:08:01;;;;;;;;;;;;;;;25.52;37.04;98394.34;4484422;31;34042;-85
2022/09/16 12:10:36;;;;;;;;;;;;;;;25.74;35.05;98393.91;4484394;32;33468;-84
2022/09/16 12:13:05;;;;;;;;;;;;;;;25.72;36.80;98394.00;4470227;32;35165;-89
2022/09/16 12:15:35;;;;;;;;;;;;;;;25.96;35.55;98399.63;4470188;32;35065;-84
2022/09/16 12:18:07;;;;;;;;;;;;;;;26.41;34.35;98387.03;4484172;32;35036;-85
2022/09/16 12:20:42;;;;;;;;;;;;;;;25.67;34.64;98388.09;4484421;32;33318;-88
2022/09/16 12:23:17;;;;;;;;;;;;;;;25.88;35.21;98393.09;4469877;32;34006;-86
2022/09/16 12:25:48;;;;;;;;;;;;;;;26.19;34.60;98384.91;4457488;32;34879;-85
2022/09/16 12:28:19;;;;;;;;;;;;;;;26.32;35.47;98384.97;4470239;32;35008;-84
2022/09/16 12:30:48;;;;;;;;;;;;;;;26.36;35.57;98390.94;4470180;32;32969;-84
2022/09/16 12:33:18;;;;;;;;;;;;;;;25.81;35.41;98395.25;4470435;32;33899;-85
2022/09/16 12:35:45;;;;;;;;;;;;;;;25.92;36.07;98395.47;4470146;32;35229;-85
2022/09/16 12:38:14;;;;;;;;;;;;;;;26.15;36.67;98391.34;4484049;32;34242;-87
2022/09/16 12:40:44;;;;;;;;;;;;;;;26.53;34.69;98382.78;4470101;32;34201;-83
2022/09/16 12:43:22;;;;;;;;;;;;;;;26.50;33.95;98377.66;4484617;32;33823;-83
2022/09/16 12:46:12;;;;;;;;;;;;;;;26.18;35.05;98372.56;4469972;32;34371;-84
2022/09/16 12:48:46;;;;;;;;;;;;;;;25.52;37.34;98370.47;4476088;32;34574;-86
2022/09/16 12:51:32;;;;;;;;;;;;;;;25.93;35.33;98365.28;4483797;32;33291;-84
2022/09/16 12:54:10;;;;;;;;;;;;;;;25.99;35.55;98356.09;4484101;32;34399;-84
2022/09/16 12:56:37;;;;;;;;;;;;;;;26.60;33.93;98365.47;4469978;32;35261;-88
2022/09/16 12:59:17;;;;;;;;;;;;;;;26.37;34.79;98353.66;4483856;31;34510;-87
2022/09/16 13:01:49;;;;;;;;;;;;;;;26.04;35.84;98364.63;4456409;32;869083;-89
2022/09/16 13:04:17;;;;;;;;;;;;;;;25.76;37.09;98362.81;4469752;32;34176;-87
2022/09/16 13:06:46;;;;;;;;;;;;;;;25.87;35.76;98362.16;4484008;32;34347;-85
2022/09/16 13:09:20;;;;;;;;;;;;;;;26.01;34.75;98348.88;4469844;32;34557;-83
2022/09/16 13:11:55;;;;;;;;;;;;;;;26.32;35.16;98347.75;4483896;32;33226;-83